createdAt,value
2022-09-23T00:01:04.772Z,12.82
2022-09-23T00:03:42.000Z,12.73
2022-09-23T00:06:12.444Z,16.10
2022-09-23T00:08:40.515Z,20.00
2022-09-23T00:11:10.416Z,15.02
2022-09-23T00:13:39.592Z,15.15
2022-09-23T00:16:11.063Z,11.98
2022-09-23T00:18:38.129Z,15.00
2022-09-23T00:21:06.423Z,15.18
2022-09-23T00:23:33.440Z,12.05
2022-09-23T00:26:02.665Z,12.07
2022-09-23T00:28:30.853Z,12.95
2022-09-23T00:31:03.166Z,14.32
2022-09-23T00:33:30.247Z,12.80
2022-09-23T00:36:02.005Z,13.32
2022-09-23T00:38:29.580Z,9.35
2022-09-23T00:40:56.571Z,10.90
2022-09-23T00:43:45.092Z,11.38
2022-09-23T00:46:16.925Z,11.95
2022-09-23T00:48:44.496Z,12.90
2022-09-23T00:51:17.958Z,14.23
2022-09-23T00:53:48.539Z,12.35
2022-09-23T00:56:15.819Z,12.32
2022-09-23T00:58:45.326Z,12.90
2022-09-23T01:01:14.483Z,11.35
2022-09-23T01:03:45.680Z,10.60
2022-09-23T01:06:13.634Z,14.05
2022-09-23T01:08:44.368Z,11.30
2022-09-23T01:11:42.044Z,12.32
2022-09-23T01:14:09.067Z,11.10
2022-09-23T01:16:58.846Z,8.95
2022-09-23T01:19:28.831Z,12.90
2022-09-23T01:22:22.202Z,11.05
2022-09-23T01:25:13.794Z,12.90
2022-09-23T01:27:43.362Z,11.55
2022-09-23T01:30:31.588Z,14.77
2022-09-23T01:33:04.598Z,16.33
2022-09-23T01:35:43.097Z,13.60
2022-09-23T01:38:24.924Z,16.27
2022-09-23T01:40:54.825Z,13.73
2022-09-23T01:43:28.483Z,13.73
2022-09-23T01:45:59.883Z,16.13
2022-09-23T01:48:39.021Z,14.45
2022-09-23T01:51:13.972Z,13.35
2022-09-23T01:54:13.247Z,14.57
2022-09-23T01:56:51.863Z,12.07
2022-09-23T01:59:26.620Z,13.40
2022-09-23T02:02:08.886Z,12.48
2022-09-23T02:04:47.249Z,12.32
2022-09-23T02:07:20.850Z,14.18
2022-09-23T02:10:14.001Z,12.98
2022-09-23T02:12:46.936Z,12.55
2022-09-23T02:15:18.324Z,12.55
2022-09-23T02:17:52.149Z,10.93
2022-09-23T02:20:32.960Z,13.88
2022-09-23T02:23:07.694Z,11.82
2022-09-23T02:25:57.186Z,12.32
2022-09-23T02:28:41.950Z,12.93
2022-09-23T02:31:13.122Z,11.15
2022-09-23T02:33:46.263Z,11.52
2022-09-23T02:36:26.094Z,12.25
2022-09-23T02:38:57.996Z,9.35
2022-09-23T02:44:14.777Z,14.75
2022-09-23T02:46:43.672Z,14.23
2022-09-23T02:49:24.008Z,12.10
2022-09-23T02:51:51.438Z,13.10
2022-09-23T02:54:22.928Z,12.07
2022-09-23T02:56:49.788Z,11.63
2022-09-23T02:59:19.568Z,11.50
2022-09-23T03:02:14.304Z,11.90
2022-09-23T03:04:59.723Z,11.65
2022-09-23T03:08:04.409Z,11.75
2022-09-23T03:10:53.066Z,12.27
2022-09-23T03:13:31.483Z,9.82
2022-09-23T03:16:22.797Z,16.33
2022-09-23T03:19:27.520Z,10.95
2022-09-23T03:22:35.473Z,14.57
2022-09-23T03:25:08.333Z,12.20
2022-09-23T03:27:36.540Z,13.52
2022-09-23T03:30:06.883Z,16.95
2022-09-23T03:32:34.991Z,12.43
2022-09-23T03:35:04.230Z,12.45
2022-09-23T03:37:49.417Z,12.73
2022-09-23T03:40:42.082Z,11.43
2022-09-23T03:43:11.855Z,12.63
2022-09-23T03:45:38.840Z,12.30
2022-09-23T03:48:07.205Z,16.10
2022-09-23T03:50:35.793Z,12.20
2022-09-23T03:53:02.588Z,13.68
2022-09-23T03:55:29.489Z,15.35
2022-09-23T03:57:57.020Z,13.98
2022-09-23T04:00:23.871Z,15.25
2022-09-23T04:02:50.743Z,15.45
2022-09-23T04:05:18.235Z,13.50
2022-09-23T04:07:45.276Z,13.18
2022-09-23T04:10:12.225Z,16.50
2022-09-23T04:12:39.502Z,16.23
2022-09-23T04:15:07.032Z,18.23
2022-09-23T04:17:34.228Z,13.65
2022-09-23T04:20:01.507Z,18.05
2022-09-23T04:22:28.493Z,14.48
2022-09-23T04:24:55.295Z,16.55
2022-09-23T04:27:22.440Z,15.43
2022-09-23T04:29:49.279Z,15.32
2022-09-23T04:32:16.129Z,17.38
2022-09-23T04:34:43.342Z,13.48
2022-09-23T04:37:10.159Z,24.75
2022-09-23T04:39:36.963Z,19.65
2022-09-23T04:42:04.323Z,19.98
2022-09-23T04:44:31.406Z,12.90
2022-09-23T04:46:58.594Z,15.30
2022-09-23T04:49:26.249Z,15.00
2022-09-23T04:51:54.321Z,17.70
2022-09-23T04:54:21.089Z,14.73
2022-09-23T04:56:48.066Z,15.48
2022-09-23T04:59:15.116Z,14.05
2022-09-23T05:01:42.026Z,20.10
2022-09-23T05:04:13.856Z,17.23
2022-09-23T05:09:08.912Z,15.80
2022-09-23T05:11:36.459Z,17.30
2022-09-23T05:14:03.384Z,18.67
2022-09-23T05:16:30.323Z,15.45
2022-09-23T05:18:58.097Z,17.92
2022-09-23T05:21:29.186Z,14.02
2022-09-23T05:23:59.091Z,16.00
2022-09-23T05:26:31.640Z,14.77
2022-09-23T05:28:59.785Z,21.15
2022-09-23T05:31:28.792Z,17.95
2022-09-23T05:34:00.941Z,15.88
2022-09-23T05:36:32.127Z,20.83
2022-09-23T05:39:03.718Z,16.75
2022-09-23T05:41:30.912Z,15.60
2022-09-23T05:43:59.701Z,15.10
2022-09-23T05:46:29.531Z,20.65
2022-09-23T05:49:02.139Z,15.52
2022-09-23T05:51:32.692Z,16.05
2022-09-23T05:54:02.932Z,14.93
2022-09-23T05:56:31.453Z,12.77
2022-09-23T05:59:00.381Z,14.88
2022-09-23T06:01:32.262Z,20.35
2022-09-23T06:04:00.617Z,16.63
2022-09-23T06:06:33.455Z,15.63
2022-09-23T06:09:01.030Z,28.85
2022-09-23T06:11:32.766Z,16.55
2022-09-23T06:14:01.176Z,17.58
2022-09-23T06:16:33.457Z,14.35
2022-09-23T06:19:05.824Z,18.92
2022-09-23T06:21:36.555Z,16.77
2022-09-23T06:24:04.979Z,14.40
2022-09-23T06:26:35.249Z,14.27
2022-09-23T06:29:04.590Z,21.58
2022-09-23T06:31:32.977Z,14.93
2022-09-23T06:34:09.515Z,11.48
2022-09-23T06:36:45.776Z,13.90
2022-09-23T06:39:16.802Z,13.15
2022-09-23T06:41:45.242Z,16.30
2022-09-23T06:44:15.624Z,15.85
2022-09-23T06:46:42.829Z,16.05
2022-09-23T06:49:12.205Z,13.07
2022-09-23T06:51:39.232Z,12.50
2022-09-23T06:54:06.282Z,12.80
2022-09-23T06:56:38.503Z,12.35
2022-09-23T06:59:09.515Z,13.95
2022-09-23T07:01:36.694Z,12.25
2022-09-23T07:04:03.827Z,16.15
2022-09-23T07:06:30.752Z,15.38
2022-09-23T07:08:57.719Z,11.77
2022-09-23T07:11:24.548Z,13.63
2022-09-23T07:13:51.343Z,12.05
2022-09-23T07:16:18.481Z,15.70
2022-09-23T07:18:45.884Z,14.07
2022-09-23T07:21:15.974Z,13.15
2022-09-23T07:23:46.009Z,13.57
2022-09-23T07:26:14.484Z,21.65
2022-09-23T07:28:41.314Z,12.48
2022-09-23T07:31:14.879Z,11.85
2022-09-23T07:33:44.214Z,10.95
2022-09-23T07:36:14.978Z,12.93
2022-09-23T07:38:45.459Z,13.98
2022-09-23T07:41:17.312Z,12.07
2022-09-23T07:43:47.952Z,11.10
2022-09-23T07:46:17.696Z,11.52
2022-09-23T07:48:46.040Z,7.20
2022-09-23T07:51:18.202Z,5.00
2022-09-23T07:53:48.379Z,5.53
2022-09-23T07:56:16.431Z,6.93
2022-09-23T07:58:43.396Z,5.93
2022-09-23T08:01:12.096Z,5.78
2022-09-23T08:03:39.881Z,5.05
2022-09-23T08:06:10.529Z,5.68
2022-09-23T08:08:40.482Z,6.83
2022-09-23T08:11:10.377Z,5.78
2022-09-23T08:13:37.992Z,12.07
2022-09-23T08:16:05.544Z,6.35
2022-09-23T08:18:34.054Z,3.42
2022-09-23T08:21:01.079Z,4.28
2022-09-23T08:23:33.336Z,4.65
2022-09-23T08:26:09.855Z,5.43
2022-09-23T08:28:44.356Z,8.77
2022-09-23T08:31:14.155Z,4.82
2022-09-23T08:33:41.309Z,8.55
2022-09-23T08:36:08.804Z,4.88
2022-09-23T08:38:35.925Z,7.25
2022-09-23T08:41:16.236Z,9.52
2022-09-23T08:43:48.782Z,5.53
2022-09-23T08:46:24.906Z,7.72
2022-09-23T08:48:52.748Z,6.68
2022-09-23T08:51:26.377Z,6.57
2022-09-23T08:53:53.363Z,3.42
2022-09-23T08:56:23.319Z,4.13
2022-09-23T08:59:07.515Z,4.15
2022-09-23T09:01:49.338Z,3.35
2022-09-23T09:04:35.285Z,2.92
2022-09-23T09:07:38.130Z,2.58
2022-09-23T09:10:05.322Z,4.05
2022-09-23T09:12:49.304Z,3.10
2022-09-23T09:15:24.666Z,5.35
2022-09-23T09:18:07.800Z,5.78
2022-09-23T09:20:57.167Z,5.22
2022-09-23T09:23:38.838Z,7.13
2022-09-23T09:26:06.619Z,6.47
2022-09-23T09:28:49.158Z,7.38
2022-09-23T09:31:22.704Z,7.07
2022-09-23T09:33:58.010Z,5.55
2022-09-23T09:36:36.686Z,7.05
2022-09-23T09:39:04.517Z,5.30
2022-09-23T09:41:31.540Z,5.57
2022-09-23T09:44:03.472Z,5.22
2022-09-23T09:46:49.121Z,4.88
2022-09-23T09:49:39.551Z,5.63
2022-09-23T09:52:20.244Z,8.25
2022-09-23T09:54:49.308Z,5.90
2022-09-23T09:57:33.646Z,8.50
2022-09-23T10:00:26.451Z,3.03
2022-09-23T10:02:56.184Z,7.47
2022-09-23T10:05:56.730Z,6.72
2022-09-23T10:08:35.594Z,4.22
2022-09-23T10:11:08.334Z,4.35
2022-09-23T10:13:36.263Z,2.00
2022-09-23T10:16:04.206Z,1.50
2022-09-23T10:18:33.742Z,1.75
2022-09-23T10:21:15.604Z,1.75
2022-09-23T10:26:13.017Z,2.78
2022-09-23T10:28:50.308Z,1.65
2022-09-23T10:31:26.617Z,1.23
2022-09-23T10:33:57.409Z,1.63
2022-09-23T10:36:24.910Z,0.95
2022-09-23T10:39:19.880Z,1.73
2022-09-23T10:42:22.457Z,1.20
2022-09-23T10:45:20.074Z,1.70
2022-09-23T10:47:59.601Z,1.67
2022-09-23T10:50:39.636Z,3.13
2022-09-23T10:53:42.019Z,2.70
2022-09-23T10:56:26.851Z,2.47
2022-09-23T10:59:31.544Z,1.25
2022-09-23T11:02:31.307Z,2.25
2022-09-23T11:05:25.966Z,2.95
2022-09-23T11:08:02.330Z,4.28
2022-09-23T11:10:49.836Z,2.00
2022-09-23T11:13:30.520Z,5.22
2022-09-23T11:16:29.290Z,1.67
2022-09-23T11:19:33.779Z,1.42
2022-09-23T11:22:22.835Z,4.45
2022-09-23T11:25:12.003Z,1.77
2022-09-23T11:27:44.828Z,2.08
2022-09-23T11:30:22.873Z,2.35
2022-09-23T11:33:19.559Z,1.40
2022-09-23T11:35:59.073Z,1.90
2022-09-23T11:38:35.891Z,3.63
2022-09-23T11:41:17.576Z,3.13
2022-09-23T11:43:51.508Z,2.53
2022-09-23T11:46:29.066Z,3.45
2022-09-23T11:49:03.429Z,1.33
2022-09-23T11:51:37.529Z,3.38
2022-09-23T11:54:11.329Z,2.03
2022-09-23T11:56:48.698Z,3.47
2022-09-23T11:59:23.949Z,1.98
2022-09-23T12:02:12.332Z,2.08
2022-09-23T12:04:57.484Z,1.05
2022-09-23T12:07:34.595Z,2.22
2022-09-23T12:10:08.129Z,1.42
2022-09-23T12:12:47.998Z,1.23
2022-09-23T12:15:21.302Z,2.20
2022-09-23T12:17:54.582Z,2.25
2022-09-23T12:20:36.517Z,1.73
2022-09-23T12:23:21.604Z,1.30
2022-09-23T12:25:54.284Z,1.63
2022-09-23T12:28:28.335Z,1.35
2022-09-23T12:30:58.978Z,1.40
2022-09-23T12:33:29.944Z,3.72
2022-09-23T12:36:12.296Z,1.23
2022-09-23T12:38:58.260Z,1.70
2022-09-23T12:41:43.054Z,1.75
2022-09-23T12:44:13.612Z,2.13
2022-09-23T12:46:45.700Z,1.65
2022-09-23T12:49:29.087Z,1.60
2022-09-23T12:52:17.924Z,5.20
2022-09-23T12:54:50.312Z,1.58
2022-09-23T12:57:35.476Z,4.60
2022-09-23T13:00:12.889Z,1.52
2022-09-23T13:02:47.103Z,10.68
2022-09-23T13:05:47.312Z,3.00
2022-09-23T13:08:24.880Z,3.00
2022-09-23T13:11:01.681Z,4.43
2022-09-23T13:13:36.024Z,2.20
2022-09-23T13:16:35.280Z,4.43
2022-09-23T13:19:27.154Z,3.72
2022-09-23T13:21:54.082Z,3.58
2022-09-23T13:24:21.068Z,3.78
2022-09-23T13:27:33.858Z,3.90
2022-09-23T13:30:25.150Z,2.35
2022-09-23T13:33:12.794Z,1.63
2022-09-23T13:35:44.509Z,1.92
2022-09-23T13:38:18.518Z,2.03
2022-09-23T13:40:46.469Z,3.00
2022-09-23T13:43:27.403Z,4.00
2022-09-23T13:45:55.244Z,2.17
2022-09-23T13:48:24.561Z,1.48
2022-09-23T13:50:53.486Z,2.08
2022-09-23T13:53:31.841Z,2.53
2022-09-23T13:56:14.409Z,2.15
2022-09-23T13:58:43.633Z,2.63
2022-09-23T14:01:24.209Z,2.30
2022-09-23T14:03:51.668Z,1.08
2022-09-23T14:06:19.162Z,4.20
2022-09-23T14:08:49.837Z,2.10
2022-09-23T14:11:29.612Z,6.70
2022-09-23T14:13:58.604Z,7.47
2022-09-23T14:16:28.265Z,5.30
2022-09-23T14:19:00.359Z,4.55
2022-09-23T14:21:36.757Z,1.90
2022-09-23T14:24:10.645Z,5.03
2022-09-23T14:26:39.528Z,2.58
2022-09-23T14:29:15.603Z,3.28
2022-09-23T14:31:57.153Z,4.97
2022-09-23T14:34:54.835Z,1.70
2022-09-23T14:37:44.955Z,2.35
2022-09-23T14:40:22.047Z,4.43
2022-09-23T14:43:11.242Z,2.20
2022-09-23T14:45:40.256Z,1.90
2022-09-23T14:48:14.434Z,4.22
2022-09-23T14:50:49.283Z,4.60
2022-09-23T14:53:22.636Z,1.65
2022-09-23T14:56:17.146Z,1.50
2022-09-23T14:58:55.154Z,1.88
2022-09-23T15:01:35.096Z,5.45
2022-09-23T15:04:30.942Z,1.67
2022-09-23T15:07:16.781Z,1.40
2022-09-23T15:09:45.408Z,3.00
2022-09-23T15:12:15.942Z,1.85
2022-09-23T15:14:49.691Z,1.33
2022-09-23T15:17:22.582Z,4.78
2022-09-23T15:20:15.661Z,2.40
2022-09-23T15:22:48.386Z,4.45
2022-09-23T15:25:21.394Z,4.90
2022-09-23T15:28:04.298Z,1.65
2022-09-23T15:30:32.073Z,2.75
2022-09-23T15:32:59.873Z,5.35
2022-09-23T15:35:26.958Z,4.25
2022-09-23T15:37:58.915Z,1.40
2022-09-23T15:40:36.786Z,2.17
2022-09-23T15:43:21.019Z,2.25
2022-09-23T15:45:50.428Z,3.33
2022-09-23T15:48:22.782Z,1.85
2022-09-23T15:50:50.951Z,2.97
2022-09-23T15:53:24.615Z,3.97
2022-09-23T15:55:52.227Z,2.42
2022-09-23T15:58:20.663Z,2.20
2022-09-23T16:00:55.881Z,2.67
2022-09-23T16:03:31.076Z,3.47
2022-09-23T16:06:03.077Z,3.22
2022-09-23T16:08:32.926Z,2.92
2022-09-23T16:11:00.387Z,5.32
2022-09-23T16:13:27.482Z,3.42
2022-09-23T16:15:54.488Z,2.05
2022-09-23T16:18:21.348Z,5.60
2022-09-23T16:20:50.275Z,3.38
2022-09-23T16:23:40.978Z,3.20
2022-09-23T16:26:17.269Z,2.40
2022-09-23T16:28:45.849Z,2.33
2022-09-23T16:31:17.076Z,3.72
2022-09-23T16:33:45.674Z,6.07
2022-09-23T16:36:33.886Z,3.50
2022-09-23T16:39:04.082Z,3.58
2022-09-23T16:41:32.186Z,1.92
2022-09-23T16:44:01.115Z,8.27
2022-09-23T16:46:29.378Z,2.83
2022-09-23T16:48:57.690Z,4.47
2022-09-23T16:51:27.701Z,6.85
2022-09-23T16:53:57.243Z,4.22
2022-09-23T16:56:28.909Z,3.78
2022-09-23T16:58:57.134Z,4.60
2022-09-23T17:01:45.580Z,4.75
2022-09-23T17:04:16.888Z,5.43
2022-09-23T17:06:50.217Z,7.43
2022-09-23T17:09:19.923Z,4.40
2022-09-23T17:11:57.850Z,7.05
2022-09-23T17:14:24.959Z,8.05
2022-09-23T17:16:51.877Z,10.10
2022-09-23T17:19:18.758Z,5.68
2022-09-23T17:21:45.775Z,11.13
2022-09-23T17:24:12.707Z,6.82
2022-09-23T17:26:39.600Z,5.32
2022-09-23T17:29:07.510Z,11.65
2022-09-23T17:31:34.693Z,8.05
2022-09-23T17:34:01.683Z,8.00
2022-09-23T17:36:28.747Z,4.70
2022-09-23T17:38:55.949Z,7.90
2022-09-23T17:41:22.822Z,5.40
2022-09-23T17:43:57.154Z,7.82
2022-09-23T17:46:24.222Z,38.90
2022-09-23T17:48:58.291Z,7.38
2022-09-23T17:51:25.710Z,6.82
2022-09-23T17:53:52.616Z,6.10
2022-09-23T17:56:25.162Z,5.70
2022-09-23T17:58:53.954Z,6.38
2022-09-23T18:01:26.085Z,10.32
2022-09-23T18:04:05.642Z,6.28
2022-09-23T18:06:38.429Z,9.77
2022-09-23T18:09:08.547Z,5.00
2022-09-23T18:11:38.586Z,8.23
2022-09-23T18:14:18.501Z,6.85
2022-09-23T18:16:48.785Z,9.68
2022-09-23T18:19:21.260Z,8.73
2022-09-23T18:21:54.600Z,5.28
2022-09-23T18:24:37.698Z,9.98
2022-09-23T18:27:06.461Z,7.13
2022-09-23T18:29:34.371Z,8.55
2022-09-23T18:32:01.901Z,6.25
2022-09-23T18:34:31.138Z,7.13
2022-09-23T18:36:57.981Z,15.57
2022-09-23T18:39:25.036Z,10.00
2022-09-23T18:41:52.155Z,12.48
2022-09-23T18:44:20.133Z,12.90
2022-09-23T18:46:47.002Z,6.00
2022-09-23T18:49:32.432Z,7.72
2022-09-23T18:51:59.427Z,10.82
2022-09-23T18:54:28.585Z,7.60
2022-09-23T18:56:55.783Z,4.53
2022-09-23T18:59:27.897Z,6.03
2022-09-23T19:01:57.610Z,6.75
2022-09-23T19:04:26.870Z,4.38
2022-09-23T19:06:56.815Z,9.10
2022-09-23T19:09:24.621Z,4.53
2022-09-23T19:11:52.564Z,4.22
2022-09-23T19:14:20.010Z,6.03
2022-09-23T19:16:51.007Z,6.05
2022-09-23T19:19:17.989Z,5.27
2022-09-23T19:21:45.032Z,4.85
2022-09-23T19:24:16.268Z,5.88
2022-09-23T19:26:44.340Z,3.63
2022-09-23T19:29:16.695Z,4.28
2022-09-23T19:31:45.211Z,5.45
2022-09-23T19:34:17.728Z,6.28
2022-09-23T19:36:47.206Z,6.05
2022-09-23T19:39:17.542Z,3.88
2022-09-23T19:41:45.066Z,7.32
2022-09-23T19:44:12.291Z,4.40
2022-09-23T19:46:42.851Z,4.35
2022-09-23T19:49:11.415Z,5.60
2022-09-23T19:51:39.390Z,9.68
2022-09-23T19:54:07.820Z,5.95
2022-09-23T19:56:35.989Z,2.92
2022-09-23T19:59:04.522Z,4.90
2022-09-23T20:01:32.279Z,8.65
2022-09-23T20:04:00.217Z,4.78
2022-09-23T20:06:32.416Z,9.05
2022-09-23T20:09:00.912Z,3.53
2022-09-23T20:11:29.164Z,3.40
2022-09-23T20:14:01.789Z,2.70
2022-09-23T20:16:35.786Z,3.65
2022-09-23T20:19:04.394Z,4.15
2022-09-23T20:21:33.589Z,7.57
2022-09-23T20:24:01.458Z,5.88
2022-09-23T20:26:47.380Z,4.63
2022-09-23T20:29:14.849Z,5.57
2022-09-23T20:31:41.882Z,6.45
2022-09-23T20:34:10.796Z,4.93
2022-09-23T20:36:41.304Z,8.23
2022-09-23T20:39:10.211Z,4.88
2022-09-23T20:41:39.362Z,4.72
2022-09-23T20:44:10.434Z,5.45
2022-09-23T20:46:38.883Z,4.03
2022-09-23T20:49:08.103Z,5.80
2022-09-23T20:51:36.342Z,4.70
2022-09-23T20:54:04.175Z,7.68
2022-09-23T20:56:31.361Z,6.70
2022-09-23T20:59:03.701Z,7.28
2022-09-23T21:01:35.231Z,6.43
2022-09-23T21:04:05.762Z,5.22
2022-09-23T21:06:35.291Z,8.48
2022-09-23T21:09:03.315Z,8.25
2022-09-23T21:11:31.191Z,5.82
2022-09-23T21:13:59.174Z,12.95
2022-09-23T21:16:26.030Z,4.68
2022-09-23T21:18:53.480Z,4.15
2022-09-23T21:21:22.292Z,5.38
2022-09-23T21:23:50.303Z,6.32
2022-09-23T21:26:20.159Z,4.78
2022-09-23T21:28:49.198Z,6.40
2022-09-23T21:31:25.404Z,4.18
2022-09-23T21:33:54.103Z,7.88
2022-09-23T21:36:21.661Z,4.72
2022-09-23T21:38:48.472Z,6.47
2022-09-23T21:41:15.538Z,7.05
2022-09-23T21:43:42.390Z,6.47
2022-09-23T21:46:11.861Z,6.10
2022-09-23T21:48:41.157Z,5.90
2022-09-23T21:51:12.938Z,5.88
2022-09-23T21:53:41.187Z,6.82
2022-09-23T21:56:09.524Z,6.82
2022-09-23T21:58:38.719Z,5.63
2022-09-23T22:01:17.904Z,9.85
2022-09-23T22:03:50.886Z,28.75
2022-09-23T22:06:21.629Z,53.25
2022-09-23T22:08:51.232Z,65.90
2022-09-23T22:11:40.110Z,74.47
2022-09-23T22:14:10.569Z,53.50
2022-09-23T22:16:37.407Z,62.13
2022-09-23T22:19:07.388Z,58.58
2022-09-23T22:21:38.112Z,33.65
2022-09-23T22:24:07.427Z,33.97
2022-09-23T22:26:37.204Z,39.00
2022-09-23T22:29:24.632Z,37.00
2022-09-23T22:32:10.346Z,36.63
2022-09-23T22:34:49.672Z,24.05
2022-09-23T22:37:20.474Z,24.95
2022-09-23T22:39:47.479Z,17.75
2022-09-23T22:42:14.513Z,15.90
2022-09-23T22:44:42.026Z,14.73
2022-09-23T22:47:10.240Z,16.33
2022-09-23T22:49:37.299Z,13.40
2022-09-23T22:52:08.408Z,9.80
2022-09-23T22:54:35.618Z,10.75
2022-09-23T22:57:07.028Z,11.55
2022-09-23T22:59:34.843Z,11.15
2022-09-23T23:02:02.861Z,13.05
2022-09-23T23:04:30.354Z,12.90
2022-09-23T23:06:58.906Z,20.52
2022-09-23T23:09:26.044Z,32.08
2022-09-23T23:11:52.997Z,21.23
2022-09-23T23:14:19.881Z,16.45
2022-09-23T23:16:47.709Z,20.85
2022-09-23T23:19:17.227Z,20.23
2022-09-23T23:21:45.491Z,22.48
2022-09-23T23:24:23.609Z,38.03
2022-09-23T23:26:52.315Z,41.47
2022-09-23T23:29:20.907Z,34.72
2022-09-23T23:31:48.626Z,36.90
2022-09-23T23:34:21.271Z,25.50
2022-09-23T23:37:06.834Z,22.25
2022-09-23T23:39:33.866Z,29.75
2022-09-23T23:42:00.857Z,22.75
2022-09-23T23:44:27.727Z,22.63
2022-09-23T23:46:54.943Z,21.77
2022-09-23T23:49:22.957Z,38.25
2022-09-23T23:51:49.769Z,34.00
2022-09-23T23:54:17.003Z,43.35
2022-09-23T23:56:44.386Z,40.50
2022-09-23T23:59:11.575Z,24.45
